sensor_id;sensor_type;location;lat;lon;timestamp;temperature;humidity
20839;DHT22;10580;51.092;6.828;2024-01-16T00:00:05;1.10;99.90
20839;DHT22;10580;51.092;6.828;2024-01-16T00:02:32;1.10;99.90
20839;DHT22;10580;51.092;6.828;2024-01-16T00:12:17;1.10;99.90
20839;DHT22;10580;51.092;6.828;2024-01-16T00:18:11;1.10;99.90
20839;DHT22;10580;51.092;6.828;2024-01-16T00:26:39;1.10;99.90
20839;DHT22;10580;51.092;6.828;2024-01-16T01:08:45;1.00;98.40
20839;DHT22;10580;51.092;6.828;2024-01-16T01:11:11;1.00;99.90
20839;DHT22;10580;51.092;6.828;2024-01-16T01:13:37;1.00;94.70
20839;DHT22;10580;51.092;6.828;2024-01-16T01:16:03;0.90;54.20
20839;DHT22;10580;51.092;6.828;2024-01-16T01:18:29;0.90;31.10
20839;DHT22;10580;51.092;6.828;2024-01-16T01:20:55;0.90;41.60
20839;DHT22;10580;51.092;6.828;2024-01-16T01:23:21;1.00;1.00
20839;DHT22;10580;51.092;6.828;2024-01-16T01:25:47;1.00;1.00
20839;DHT22;10580;51.092;6.828;2024-01-16T01:28:12;1.00;1.00
20839;DHT22;10580;51.092;6.828;2024-01-16T01:30:38;1.00;1.00
20839;DHT22;10580;51.092;6.828;2024-01-16T01:33:04;1.00;1.80
20839;DHT22;10580;51.092;6.828;2024-01-16T01:35:30;1.00;10.00
20839;DHT22;10580;51.092;6.828;2024-01-16T01:37:55;1.00;1.00
20839;DHT22;10580;51.092;6.828;2024-01-16T01:40:21;1.00;1.00
20839;DHT22;10580;51.092;6.828;2024-01-16T01:42:46;1.00;2.60
20839;DHT22;10580;51.092;6.828;2024-01-16T01:45:12;1.00;5.80
20839;DHT22;10580;51.092;6.828;2024-01-16T01:47:39;1.00;30.90
20839;DHT22;10580;51.092;6.828;2024-01-16T01:50:06;1.00;72.40
20839;DHT22;10580;51.092;6.828;2024-01-16T01:52:33;1.00;84.70
20839;DHT22;10580;51.092;6.828;2024-01-16T01:54:59;1.00;79.30
20839;DHT22;10580;51.092;6.828;2024-01-16T01:57:27;1.00;75.30
20839;DHT22;10580;51.092;6.828;2024-01-16T01:59:52;1.00;91.30
20839;DHT22;10580;51.092;6.828;2024-01-16T02:02:19;1.00;99.90
20839;DHT22;10580;51.092;6.828;2024-01-16T02:04:45;1.00;99.90
20839;DHT22;10580;51.092;6.828;2024-01-16T02:07:12;1.00;99.90
20839;DHT22;10580;51.092;6.828;2024-01-16T02:09:38;1.00;99.90
20839;DHT22;10580;51.092;6.828;2024-01-16T02:12:04;1.00;99.90
20839;DHT22;10580;51.092;6.828;2024-01-16T02:14:30;1.00;99.90
20839;DHT22;10580;51.092;6.828;2024-01-16T02:16:56;1.00;99.90
20839;DHT22;10580;51.092;6.828;2024-01-16T02:19:21;1.00;99.90
20839;DHT22;10580;51.092;6.828;2024-01-16T02:21:48;1.00;99.90
20839;DHT22;10580;51.092;6.828;2024-01-16T02:24:15;0.90;99.90
20839;DHT22;10580;51.092;6.828;2024-01-16T02:26:42;0.90;99.90
20839;DHT22;10580;51.092;6.828;2024-01-16T02:29:08;0.90;99.90
20839;DHT22;10580;51.092;6.828;2024-01-16T02:31:35;0.90;99.90
20839;DHT22;10580;51.092;6.828;2024-01-16T02:34:01;0.90;99.90
20839;DHT22;10580;51.092;6.828;2024-01-16T02:36:27;0.90;97.10
20839;DHT22;10580;51.092;6.828;2024-01-16T02:38:54;0.90;54.00
20839;DHT22;10580;51.092;6.828;2024-01-16T02:41:20;1.00;21.20
20839;DHT22;10580;51.092;6.828;2024-01-16T02:43:46;0.90;1.00
20839;DHT22;10580;51.092;6.828;2024-01-16T02:46:12;1.00;1.00
20839;DHT22;10580;51.092;6.828;2024-01-16T02:48:38;1.00;1.00
20839;DHT22;10580;51.092;6.828;2024-01-16T02:51:04;1.00;1.00
20839;DHT22;10580;51.092;6.828;2024-01-16T02:53:31;0.90;1.00
20839;DHT22;10580;51.092;6.828;2024-01-16T02:55:56;0.90;1.00
20839;DHT22;10580;51.092;6.828;2024-01-16T02:58:28;1.00;1.00
20839;DHT22;10580;51.092;6.828;2024-01-16T03:00:54;0.90;1.00
20839;DHT22;10580;51.092;6.828;2024-01-16T03:03:20;0.90;1.00
20839;DHT22;10580;51.092;6.828;2024-01-16T03:05:46;0.90;1.00
20839;DHT22;10580;51.092;6.828;2024-01-16T03:08:12;0.90;1.00
20839;DHT22;10580;51.092;6.828;2024-01-16T03:10:38;0.90;1.00
20839;DHT22;10580;51.092;6.828;2024-01-16T03:13:04;0.90;1.00
20839;DHT22;10580;51.092;6.828;2024-01-16T03:15:29;0.90;1.00
20839;DHT22;10580;51.092;6.828;2024-01-16T03:17:56;0.90;1.00
20839;DHT22;10580;51.092;6.828;2024-01-16T03:20:22;0.90;1.00
20839;DHT22;10580;51.092;6.828;2024-01-16T03:22:48;0.80;1.00
20839;DHT22;10580;51.092;6.828;2024-01-16T03:25:14;0.90;1.00
20839;DHT22;10580;51.092;6.828;2024-01-16T03:27:40;0.80;1.00
20839;DHT22;10580;51.092;6.828;2024-01-16T03:30:06;0.80;1.00
20839;DHT22;10580;51.092;6.828;2024-01-16T03:32:32;0.80;1.00
20839;DHT22;10580;51.092;6.828;2024-01-16T03:34:57;0.80;1.00
20839;DHT22;10580;51.092;6.828;2024-01-16T03:37:23;0.90;1.00
20839;DHT22;10580;51.092;6.828;2024-01-16T03:39:49;0.80;1.00
20839;DHT22;10580;51.092;6.828;2024-01-16T03:42:15;0.80;1.00
20839;DHT22;10580;51.092;6.828;2024-01-16T03:44:41;0.90;1.00
20839;DHT22;10580;51.092;6.828;2024-01-16T03:47:07;0.90;1.00
20839;DHT22;10580;51.092;6.828;2024-01-16T03:49:33;0.80;1.00
20839;DHT22;10580;51.092;6.828;2024-01-16T03:51:59;0.90;1.00
20839;DHT22;10580;51.092;6.828;2024-01-16T03:54:24;0.90;1.00
20839;DHT22;10580;51.092;6.828;2024-01-16T03:56:51;0.90;1.00
20839;DHT22;10580;51.092;6.828;2024-01-16T03:59:16;0.90;1.00
20839;DHT22;10580;51.092;6.828;2024-01-16T04:01:42;0.90;1.00
20839;DHT22;10580;51.092;6.828;2024-01-16T04:04:09;0.90;1.00
20839;DHT22;10580;51.092;6.828;2024-01-16T04:06:36;0.90;1.00
20839;DHT22;10580;51.092;6.828;2024-01-16T04:09:02;0.80;1.00
20839;DHT22;10580;51.092;6.828;2024-01-16T04:11:29;0.80;1.00
20839;DHT22;10580;51.092;6.828;2024-01-16T04:13:55;0.80;1.00
20839;DHT22;10580;51.092;6.828;2024-01-16T04:16:20;0.80;1.00
20839;DHT22;10580;51.092;6.828;2024-01-16T04:18:46;0.70;1.00
20839;DHT22;10580;51.092;6.828;2024-01-16T04:21:11;0.70;1.00
20839;DHT22;10580;51.092;6.828;2024-01-16T04:23:37;0.70;1.00
20839;DHT22;10580;51.092;6.828;2024-01-16T04:26:03;0.70;1.00
20839;DHT22;10580;51.092;6.828;2024-01-16T04:28:28;0.60;1.00
20839;DHT22;10580;51.092;6.828;2024-01-16T04:30:54;0.60;1.00
20839;DHT22;10580;51.092;6.828;2024-01-16T04:33:20;0.60;1.00
20839;DHT22;10580;51.092;6.828;2024-01-16T04:35:45;0.60;1.00
20839;DHT22;10580;51.092;6.828;2024-01-16T04:38:11;0.60;1.00
20839;DHT22;10580;51.092;6.828;2024-01-16T04:40:36;0.60;1.00
20839;DHT22;10580;51.092;6.828;2024-01-16T04:43:02;0.60;1.00
20839;DHT22;10580;51.092;6.828;2024-01-16T04:45:28;0.70;1.00
20839;DHT22;10580;51.092;6.828;2024-01-16T04:47:53;0.60;1.00
20839;DHT22;10580;51.092;6.828;2024-01-16T04:50:19;0.70;26.90
20839;DHT22;10580;51.092;6.828;2024-01-16T04:52:45;0.70;55.70
20839;DHT22;10580;51.092;6.828;2024-01-16T04:55:10;0.70;51.30
20839;DHT22;10580;51.092;6.828;2024-01-16T04:57:36;0.70;16.30
20839;DHT22;10580;51.092;6.828;2024-01-16T05:00:02;0.70;1.00
20839;DHT22;10580;51.092;6.828;2024-01-16T05:02:32;0.70;1.00
20839;DHT22;10580;51.092;6.828;2024-01-16T05:04:58;0.70;1.00
20839;DHT22;10580;51.092;6.828;2024-01-16T05:07:24;0.70;1.00
20839;DHT22;10580;51.092;6.828;2024-01-16T05:09:50;0.70;1.00
20839;DHT22;10580;51.092;6.828;2024-01-16T05:12:15;0.70;1.00
20839;DHT22;10580;51.092;6.828;2024-01-16T05:14:41;0.60;1.00
20839;DHT22;10580;51.092;6.828;2024-01-16T05:17:06;0.60;1.00
20839;DHT22;10580;51.092;6.828;2024-01-16T05:19:32;0.60;1.00
20839;DHT22;10580;51.092;6.828;2024-01-16T05:21:57;0.70;1.00
20839;DHT22;10580;51.092;6.828;2024-01-16T05:24:23;0.60;99.90
20839;DHT22;10580;51.092;6.828;2024-01-16T05:26:49;0.60;99.90
20839;DHT22;10580;51.092;6.828;2024-01-16T05:29:14;0.60;99.90
20839;DHT22;10580;51.092;6.828;2024-01-16T05:31:43;0.70;99.90
20839;DHT22;10580;51.092;6.828;2024-01-16T05:34:09;0.70;99.90
20839;DHT22;10580;51.092;6.828;2024-01-16T05:36:35;0.70;32.50
20839;DHT22;10580;51.092;6.828;2024-01-16T05:39:00;0.70;1.00
20839;DHT22;10580;51.092;6.828;2024-01-16T05:41:27;0.60;1.00
20839;DHT22;10580;51.092;6.828;2024-01-16T05:43:52;0.70;1.00
20839;DHT22;10580;51.092;6.828;2024-01-16T05:46:18;0.70;1.00
20839;DHT22;10580;51.092;6.828;2024-01-16T05:48:44;0.70;1.00
20839;DHT22;10580;51.092;6.828;2024-01-16T05:51:09;0.70;1.00
20839;DHT22;10580;51.092;6.828;2024-01-16T05:53:35;0.70;1.00
20839;DHT22;10580;51.092;6.828;2024-01-16T05:56:01;0.70;1.00
20839;DHT22;10580;51.092;6.828;2024-01-16T05:58:26;0.70;99.90
20839;DHT22;10580;51.092;6.828;2024-01-16T06:00:52;0.60;99.90
20839;DHT22;10580;51.092;6.828;2024-01-16T06:03:18;0.60;1.00
20839;DHT22;10580;51.092;6.828;2024-01-16T06:05:44;0.60;99.90
20839;DHT22;10580;51.092;6.828;2024-01-16T06:08:09;0.60;99.90
20839;DHT22;10580;51.092;6.828;2024-01-16T06:10:35;0.60;99.90
20839;DHT22;10580;51.092;6.828;2024-01-16T06:13:00;0.50;1.00
20839;DHT22;10580;51.092;6.828;2024-01-16T06:15:26;0.50;1.00
20839;DHT22;10580;51.092;6.828;2024-01-16T06:17:51;0.50;1.00
20839;DHT22;10580;51.092;6.828;2024-01-16T06:20:17;0.50;1.00
20839;DHT22;10580;51.092;6.828;2024-01-16T06:22:42;0.50;1.00
20839;DHT22;10580;51.092;6.828;2024-01-16T06:25:08;0.50;1.00
20839;DHT22;10580;51.092;6.828;2024-01-16T06:27:34;0.50;1.00
20839;DHT22;10580;51.092;6.828;2024-01-16T06:29:59;0.50;1.00
20839;DHT22;10580;51.092;6.828;2024-01-16T06:32:25;0.50;1.00
20839;DHT22;10580;51.092;6.828;2024-01-16T06:34:50;0.50;1.00
20839;DHT22;10580;51.092;6.828;2024-01-16T06:37:16;0.50;1.00
20839;DHT22;10580;51.092;6.828;2024-01-16T06:39:41;0.50;99.90
20839;DHT22;10580;51.092;6.828;2024-01-16T06:42:07;0.50;99.90
20839;DHT22;10580;51.092;6.828;2024-01-16T06:44:32;0.50;99.90
20839;DHT22;10580;51.092;6.828;2024-01-16T06:46:58;0.50;99.90
20839;DHT22;10580;51.092;6.828;2024-01-16T06:49:24;0.50;99.90
20839;DHT22;10580;51.092;6.828;2024-01-16T06:51:49;0.60;99.90
20839;DHT22;10580;51.092;6.828;2024-01-16T06:54:15;0.50;99.90
20839;DHT22;10580;51.092;6.828;2024-01-16T06:56:40;0.60;99.90
20839;DHT22;10580;51.092;6.828;2024-01-16T06:59:06;0.60;99.90
20839;DHT22;10580;51.092;6.828;2024-01-16T07:01:31;0.60;1.00
20839;DHT22;10580;51.092;6.828;2024-01-16T07:03:59;0.60;1.00
20839;DHT22;10580;51.092;6.828;2024-01-16T07:06:24;0.60;1.00
20839;DHT22;10580;51.092;6.828;2024-01-16T07:08:50;0.60;1.00
20839;DHT22;10580;51.092;6.828;2024-01-16T07:11:15;0.60;1.00
20839;DHT22;10580;51.092;6.828;2024-01-16T07:13:41;0.60;1.00
20839;DHT22;10580;51.092;6.828;2024-01-16T07:16:10;0.60;1.00
20839;DHT22;10580;51.092;6.828;2024-01-16T07:18:37;0.60;1.00
20839;DHT22;10580;51.092;6.828;2024-01-16T07:21:03;0.60;1.00
20839;DHT22;10580;51.092;6.828;2024-01-16T07:23:29;0.60;1.00
20839;DHT22;10580;51.092;6.828;2024-01-16T07:25:55;0.70;1.00
20839;DHT22;10580;51.092;6.828;2024-01-16T07:28:20;0.60;99.90
20839;DHT22;10580;51.092;6.828;2024-01-16T07:30:47;0.60;99.90
20839;DHT22;10580;51.092;6.828;2024-01-16T07:33:13;0.60;99.90
20839;DHT22;10580;51.092;6.828;2024-01-16T07:35:39;0.60;99.90
20839;DHT22;10580;51.092;6.828;2024-01-16T07:38:06;0.60;99.90
20839;DHT22;10580;51.092;6.828;2024-01-16T07:40:32;0.70;99.90
20839;DHT22;10580;51.092;6.828;2024-01-16T07:42:58;0.70;99.90
20839;DHT22;10580;51.092;6.828;2024-01-16T07:45:24;0.60;99.90
20839;DHT22;10580;51.092;6.828;2024-01-16T07:47:49;0.70;99.90
20839;DHT22;10580;51.092;6.828;2024-01-16T07:50:15;0.60;99.90
20839;DHT22;10580;51.092;6.828;2024-01-16T07:52:41;0.70;99.90
20839;DHT22;10580;51.092;6.828;2024-01-16T07:55:06;0.70;99.90
20839;DHT22;10580;51.092;6.828;2024-01-16T07:57:32;0.70;8.60
20839;DHT22;10580;51.092;6.828;2024-01-16T07:59:58;0.70;16.60
20839;DHT22;10580;51.092;6.828;2024-01-16T08:02:32;0.70;1.00
20839;DHT22;10580;51.092;6.828;2024-01-16T08:04:57;0.80;1.00
20839;DHT22;10580;51.092;6.828;2024-01-16T08:07:23;0.70;1.00
20839;DHT22;10580;51.092;6.828;2024-01-16T08:09:48;0.80;1.00
20839;DHT22;10580;51.092;6.828;2024-01-16T08:12:14;0.80;1.00
20839;DHT22;10580;51.092;6.828;2024-01-16T08:14:39;0.80;1.00
20839;DHT22;10580;51.092;6.828;2024-01-16T08:17:05;0.70;1.00
20839;DHT22;10580;51.092;6.828;2024-01-16T08:19:32;0.80;1.00
20839;DHT22;10580;51.092;6.828;2024-01-16T08:21:58;0.70;1.00
20839;DHT22;10580;51.092;6.828;2024-01-16T08:24:23;0.70;1.00
20839;DHT22;10580;51.092;6.828;2024-01-16T08:26:49;0.80;1.00
20839;DHT22;10580;51.092;6.828;2024-01-16T08:29:15;0.80;1.00
20839;DHT22;10580;51.092;6.828;2024-01-16T08:31:41;0.80;1.00
20839;DHT22;10580;51.092;6.828;2024-01-16T08:34:06;0.90;1.00
20839;DHT22;10580;51.092;6.828;2024-01-16T08:36:32;0.90;1.00
20839;DHT22;10580;51.092;6.828;2024-01-16T08:38:57;1.00;1.00
20839;DHT22;10580;51.092;6.828;2024-01-16T08:41:23;1.00;1.00
20839;DHT22;10580;51.092;6.828;2024-01-16T08:43:48;1.00;1.00
20839;DHT22;10580;51.092;6.828;2024-01-16T08:46:14;1.10;1.00
20839;DHT22;10580;51.092;6.828;2024-01-16T08:48:40;1.20;99.90
20839;DHT22;10580;51.092;6.828;2024-01-16T08:51:10;1.20;99.90
20839;DHT22;10580;51.092;6.828;2024-01-16T08:53:37;1.30;99.90
20839;DHT22;10580;51.092;6.828;2024-01-16T08:56:03;1.50;99.90
20839;DHT22;10580;51.092;6.828;2024-01-16T08:58:32;1.60;1.00
20839;DHT22;10580;51.092;6.828;2024-01-16T09:01:02;1.70;1.00
20839;DHT22;10580;51.092;6.828;2024-01-16T09:03:28;1.90;1.00
20839;DHT22;10580;51.092;6.828;2024-01-16T09:05:53;1.80;1.00
20839;DHT22;10580;51.092;6.828;2024-01-16T09:08:19;2.00;1.00
20839;DHT22;10580;51.092;6.828;2024-01-16T09:10:44;2.20;1.00
20839;DHT22;10580;51.092;6.828;2024-01-16T09:13:10;2.20;1.00
20839;DHT22;10580;51.092;6.828;2024-01-16T09:15:36;2.20;1.00
20839;DHT22;10580;51.092;6.828;2024-01-16T09:18:02;2.20;1.00
20839;DHT22;10580;51.092;6.828;2024-01-16T09:20:27;2.00;1.00
20839;DHT22;10580;51.092;6.828;2024-01-16T09:22:53;1.90;1.00
20839;DHT22;10580;51.092;6.828;2024-01-16T09:25:19;1.90;1.00
20839;DHT22;10580;51.092;6.828;2024-01-16T09:27:45;1.80;1.00
20839;DHT22;10580;51.092;6.828;2024-01-16T09:30:11;1.80;1.00
20839;DHT22;10580;51.092;6.828;2024-01-16T09:32:37;1.50;1.00
20839;DHT22;10580;51.092;6.828;2024-01-16T09:35:03;1.50;1.00
20839;DHT22;10580;51.092;6.828;2024-01-16T09:37:31;1.50;1.00
20839;DHT22;10580;51.092;6.828;2024-01-16T09:39:57;1.40;1.00
20839;DHT22;10580;51.092;6.828;2024-01-16T09:42:23;1.40;1.00
20839;DHT22;10580;51.092;6.828;2024-01-16T09:44:50;1.30;1.00
20839;DHT22;10580;51.092;6.828;2024-01-16T09:47:17;1.40;1.00
20839;DHT22;10580;51.092;6.828;2024-01-16T09:49:45;1.40;1.00
20839;DHT22;10580;51.092;6.828;2024-01-16T09:52:11;1.40;1.00
20839;DHT22;10580;51.092;6.828;2024-01-16T09:54:37;1.30;1.00
20839;DHT22;10580;51.092;6.828;2024-01-16T09:57:06;1.30;1.00
20839;DHT22;10580;51.092;6.828;2024-01-16T09:59:33;1.30;1.00
20839;DHT22;10580;51.092;6.828;2024-01-16T10:02:01;1.30;1.00
20839;DHT22;10580;51.092;6.828;2024-01-16T10:04:31;1.20;1.00
20839;DHT22;10580;51.092;6.828;2024-01-16T10:06:57;1.10;1.00
20839;DHT22;10580;51.092;6.828;2024-01-16T10:09:24;1.20;1.00
20839;DHT22;10580;51.092;6.828;2024-01-16T10:11:50;1.30;1.00
20839;DHT22;10580;51.092;6.828;2024-01-16T10:14:17;1.30;1.00
20839;DHT22;10580;51.092;6.828;2024-01-16T10:17:03;1.30;1.00
20839;DHT22;10580;51.092;6.828;2024-01-16T10:19:48;1.30;1.00
20839;DHT22;10580;51.092;6.828;2024-01-16T10:22:22;1.20;1.00
20839;DHT22;10580;51.092;6.828;2024-01-16T10:27:31;1.20;1.00
20839;DHT22;10580;51.092;6.828;2024-01-16T10:29:57;1.20;1.00
20839;DHT22;10580;51.092;6.828;2024-01-16T10:32:34;1.20;1.00
20839;DHT22;10580;51.092;6.828;2024-01-16T10:35:08;1.20;1.00
20839;DHT22;10580;51.092;6.828;2024-01-16T10:37:50;1.10;1.00
20839;DHT22;10580;51.092;6.828;2024-01-16T10:40:21;1.20;1.00
20839;DHT22;10580;51.092;6.828;2024-01-16T10:42:58;1.20;1.00
20839;DHT22;10580;51.092;6.828;2024-01-16T10:45:24;1.30;1.00
20839;DHT22;10580;51.092;6.828;2024-01-16T10:48:03;1.30;1.00
20839;DHT22;10580;51.092;6.828;2024-01-16T10:50:30;1.50;1.00
20839;DHT22;10580;51.092;6.828;2024-01-16T10:53:04;1.60;1.00
20839;DHT22;10580;51.092;6.828;2024-01-16T10:55:31;1.90;1.00
20839;DHT22;10580;51.092;6.828;2024-01-16T10:58:03;2.10;1.00
20839;DHT22;10580;51.092;6.828;2024-01-16T11:00:31;2.40;99.90
20839;DHT22;10580;51.092;6.828;2024-01-16T11:03:07;2.70;99.90
20839;DHT22;10580;51.092;6.828;2024-01-16T11:05:35;2.90;99.90
20839;DHT22;10580;51.092;6.828;2024-01-16T11:08:02;3.10;99.90
20839;DHT22;10580;51.092;6.828;2024-01-16T11:10:31;3.60;99.90
20839;DHT22;10580;51.092;6.828;2024-01-16T11:13:00;3.60;90.20
20839;DHT22;10580;51.092;6.828;2024-01-16T11:15:27;3.80;1.00
20839;DHT22;10580;51.092;6.828;2024-01-16T11:17:55;3.80;1.00
20839;DHT22;10580;51.092;6.828;2024-01-16T11:20:21;3.60;1.00
20839;DHT22;10580;51.092;6.828;2024-01-16T11:22:49;3.10;1.00
20839;DHT22;10580;51.092;6.828;2024-01-16T11:25:16;3.10;1.00
20839;DHT22;10580;51.092;6.828;2024-01-16T11:27:44;3.20;5.30
20839;DHT22;10580;51.092;6.828;2024-01-16T11:30:11;2.90;3.90
20839;DHT22;10580;51.092;6.828;2024-01-16T11:32:38;2.50;1.00
20839;DHT22;10580;51.092;6.828;2024-01-16T11:35:06;2.20;1.00
20839;DHT22;10580;51.092;6.828;2024-01-16T11:37:33;2.20;99.90
20839;DHT22;10580;51.092;6.828;2024-01-16T11:42:47;1.80;99.90
20839;DHT22;10580;51.092;6.828;2024-01-16T11:48:13;1.80;99.90
20839;DHT22;10580;51.092;6.828;2024-01-16T11:50:40;2.00;99.90
20839;DHT22;10580;51.092;6.828;2024-01-16T11:53:06;2.10;99.90
20839;DHT22;10580;51.092;6.828;2024-01-16T11:55:33;2.20;99.90
20839;DHT22;10580;51.092;6.828;2024-01-16T11:58:29;2.20;99.90
20839;DHT22;10580;51.092;6.828;2024-01-16T12:00:57;2.20;99.90
20839;DHT22;10580;51.092;6.828;2024-01-16T12:03:23;2.30;99.90
20839;DHT22;10580;51.092;6.828;2024-01-16T12:05:59;2.50;99.90
20839;DHT22;10580;51.092;6.828;2024-01-16T12:08:25;2.40;46.70
20839;DHT22;10580;51.092;6.828;2024-01-16T12:10:51;2.20;90.70
20839;DHT22;10580;51.092;6.828;2024-01-16T12:13:16;2.10;99.90
20839;DHT22;10580;51.092;6.828;2024-01-16T12:15:42;2.20;99.90
20839;DHT22;10580;51.092;6.828;2024-01-16T12:18:08;2.20;99.90
20839;DHT22;10580;51.092;6.828;2024-01-16T12:20:36;2.30;99.90
20839;DHT22;10580;51.092;6.828;2024-01-16T12:23:06;2.50;12.80
20839;DHT22;10580;51.092;6.828;2024-01-16T12:25:34;2.60;1.00
20839;DHT22;10580;51.092;6.828;2024-01-16T12:30:28;2.40;13.10
20839;DHT22;10580;51.092;6.828;2024-01-16T12:33:08;2.70;99.90
20839;DHT22;10580;51.092;6.828;2024-01-16T12:35:42;2.50;1.00
20839;DHT22;10580;51.092;6.828;2024-01-16T12:38:09;2.30;21.80
20839;DHT22;10580;51.092;6.828;2024-01-16T12:40:36;2.10;30.70
20839;DHT22;10580;51.092;6.828;2024-01-16T12:43:03;2.00;99.90
20839;DHT22;10580;51.092;6.828;2024-01-16T12:45:29;2.10;99.90
20839;DHT22;10580;51.092;6.828;2024-01-16T12:47:54;2.20;99.90
20839;DHT22;10580;51.092;6.828;2024-01-16T12:50:24;2.20;85.70
20839;DHT22;10580;51.092;6.828;2024-01-16T12:53:03;2.30;87.00
20839;DHT22;10580;51.092;6.828;2024-01-16T12:55:30;2.20;20.60
20839;DHT22;10580;51.092;6.828;2024-01-16T13:00:42;2.00;1.00
20839;DHT22;10580;51.092;6.828;2024-01-16T13:03:08;1.90;1.00
20839;DHT22;10580;51.092;6.828;2024-01-16T13:05:39;1.90;79.20
20839;DHT22;10580;51.092;6.828;2024-01-16T13:08:05;1.80;1.00
20839;DHT22;10580;51.092;6.828;2024-01-16T13:10:31;1.80;35.50
20839;DHT22;10580;51.092;6.828;2024-01-16T13:13:18;1.70;1.00
20839;DHT22;10580;51.092;6.828;2024-01-16T13:15:44;1.70;48.00
20839;DHT22;10580;51.092;6.828;2024-01-16T13:18:23;1.70;60.30
20839;DHT22;10580;51.092;6.828;2024-01-16T13:20:53;1.70;49.10
20839;DHT22;10580;51.092;6.828;2024-01-16T13:23:19;1.70;26.20
20839;DHT22;10580;51.092;6.828;2024-01-16T13:25:47;1.70;45.90
20839;DHT22;10580;51.092;6.828;2024-01-16T13:28:14;1.80;49.30
20839;DHT22;10580;51.092;6.828;2024-01-16T13:30:41;1.80;41.10
20839;DHT22;10580;51.092;6.828;2024-01-16T13:33:07;1.80;1.00
20839;DHT22;10580;51.092;6.828;2024-01-16T13:35:41;1.80;1.00
20839;DHT22;10580;51.092;6.828;2024-01-16T13:38:08;1.80;67.40
20839;DHT22;10580;51.092;6.828;2024-01-16T13:40:35;1.80;1.00
20839;DHT22;10580;51.092;6.828;2024-01-16T13:43:01;1.80;1.00
20839;DHT22;10580;51.092;6.828;2024-01-16T13:45:27;1.80;1.00
20839;DHT22;10580;51.092;6.828;2024-01-16T13:47:54;1.80;1.00
20839;DHT22;10580;51.092;6.828;2024-01-16T13:50:19;1.80;34.10
20839;DHT22;10580;51.092;6.828;2024-01-16T13:52:46;1.90;41.90
20839;DHT22;10580;51.092;6.828;2024-01-16T13:55:11;2.30;1.00
20839;DHT22;10580;51.092;6.828;2024-01-16T13:57:37;3.00;1.00
20839;DHT22;10580;51.092;6.828;2024-01-16T14:00:05;3.10;1.00
20839;DHT22;10580;51.092;6.828;2024-01-16T14:02:31;3.00;1.00
20839;DHT22;10580;51.092;6.828;2024-01-16T14:04:57;2.80;1.00
20839;DHT22;10580;51.092;6.828;2024-01-16T14:07:23;2.50;1.00
20839;DHT22;10580;51.092;6.828;2024-01-16T14:09:48;2.10;1.00
20839;DHT22;10580;51.092;6.828;2024-01-16T14:12:14;1.90;1.00
20839;DHT22;10580;51.092;6.828;2024-01-16T14:14:40;1.80;1.00
20839;DHT22;10580;51.092;6.828;2024-01-16T14:17:06;1.80;1.00
20839;DHT22;10580;51.092;6.828;2024-01-16T14:19:34;1.70;1.00
20839;DHT22;10580;51.092;6.828;2024-01-16T14:22:00;1.70;1.00
20839;DHT22;10580;51.092;6.828;2024-01-16T14:24:26;1.70;1.00
20839;DHT22;10580;51.092;6.828;2024-01-16T14:26:51;1.80;1.00
20839;DHT22;10580;51.092;6.828;2024-01-16T14:29:17;2.00;1.00
20839;DHT22;10580;51.092;6.828;2024-01-16T14:31:44;2.30;1.00
20839;DHT22;10580;51.092;6.828;2024-01-16T14:34:14;2.70;1.00
20839;DHT22;10580;51.092;6.828;2024-01-16T14:36:40;2.80;1.00
20839;DHT22;10580;51.092;6.828;2024-01-16T14:39:06;2.70;1.00
20839;DHT22;10580;51.092;6.828;2024-01-16T14:41:35;2.40;1.00
20839;DHT22;10580;51.092;6.828;2024-01-16T14:44:01;2.20;1.00
20839;DHT22;10580;51.092;6.828;2024-01-16T14:46:27;2.00;1.00
20839;DHT22;10580;51.092;6.828;2024-01-16T14:48:52;1.80;1.00
20839;DHT22;10580;51.092;6.828;2024-01-16T14:51:18;1.60;1.00
20839;DHT22;10580;51.092;6.828;2024-01-16T14:53:47;1.50;1.00
20839;DHT22;10580;51.092;6.828;2024-01-16T14:56:12;1.40;1.00
20839;DHT22;10580;51.092;6.828;2024-01-16T14:58:38;1.40;1.00
20839;DHT22;10580;51.092;6.828;2024-01-16T15:01:04;1.40;1.00
20839;DHT22;10580;51.092;6.828;2024-01-16T15:03:31;1.30;1.00
20839;DHT22;10580;51.092;6.828;2024-01-16T15:05:57;1.20;1.00
20839;DHT22;10580;51.092;6.828;2024-01-16T15:08:22;1.20;1.00
20839;DHT22;10580;51.092;6.828;2024-01-16T15:10:48;1.10;1.00
20839;DHT22;10580;51.092;6.828;2024-01-16T15:13:14;1.00;1.00
20839;DHT22;10580;51.092;6.828;2024-01-16T15:15:41;1.00;11.50
20839;DHT22;10580;51.092;6.828;2024-01-16T15:18:08;0.90;16.50
20839;DHT22;10580;51.092;6.828;2024-01-16T15:20:34;0.90;50.90
20839;DHT22;10580;51.092;6.828;2024-01-16T15:23:00;0.90;99.90
20839;DHT22;10580;51.092;6.828;2024-01-16T15:25:25;0.80;99.90
20839;DHT22;10580;51.092;6.828;2024-01-16T15:27:52;0.70;99.90
20839;DHT22;10580;51.092;6.828;2024-01-16T15:30:21;0.70;99.90
20839;DHT22;10580;51.092;6.828;2024-01-16T15:32:56;0.60;99.90
20839;DHT22;10580;51.092;6.828;2024-01-16T15:35:22;0.60;99.90
20839;DHT22;10580;51.092;6.828;2024-01-16T15:37:48;0.60;99.90
20839;DHT22;10580;51.092;6.828;2024-01-16T15:40:14;0.50;99.90
20839;DHT22;10580;51.092;6.828;2024-01-16T15:42:41;0.50;99.90
20839;DHT22;10580;51.092;6.828;2024-01-16T15:45:07;0.50;99.90
20839;DHT22;10580;51.092;6.828;2024-01-16T15:47:33;0.40;99.90
20839;DHT22;10580;51.092;6.828;2024-01-16T15:49:59;0.30;99.90
20839;DHT22;10580;51.092;6.828;2024-01-16T15:52:25;0.20;99.90
20839;DHT22;10580;51.092;6.828;2024-01-16T15:54:50;0.20;99.90
20839;DHT22;10580;51.092;6.828;2024-01-16T15:57:16;0.20;99.90
20839;DHT22;10580;51.092;6.828;2024-01-16T15:59:42;0.10;99.90
20839;DHT22;10580;51.092;6.828;2024-01-16T16:02:08;0.00;99.90
20839;DHT22;10580;51.092;6.828;2024-01-16T16:04:36;0.00;99.90
20839;DHT22;10580;51.092;6.828;2024-01-16T16:07:02;0.00;99.90
20839;DHT22;10580;51.092;6.828;2024-01-16T16:09:28;0.00;99.90
20839;DHT22;10580;51.092;6.828;2024-01-16T16:11:54;-0.10;99.90
20839;DHT22;10580;51.092;6.828;2024-01-16T16:14:20;-0.10;99.90
20839;DHT22;10580;51.092;6.828;2024-01-16T16:16:50;-0.20;1.00
20839;DHT22;10580;51.092;6.828;2024-01-16T16:19:15;-0.20;1.00
20839;DHT22;10580;51.092;6.828;2024-01-16T16:21:41;-0.30;1.00
20839;DHT22;10580;51.092;6.828;2024-01-16T16:24:07;-0.30;1.00
20839;DHT22;10580;51.092;6.828;2024-01-16T16:26:35;-0.30;1.00
20839;DHT22;10580;51.092;6.828;2024-01-16T16:29:11;-0.30;1.00
20839;DHT22;10580;51.092;6.828;2024-01-16T16:31:38;-0.30;1.00
20839;DHT22;10580;51.092;6.828;2024-01-16T16:34:06;-0.40;1.00
20839;DHT22;10580;51.092;6.828;2024-01-16T16:36:33;-0.40;1.00
20839;DHT22;10580;51.092;6.828;2024-01-16T16:38:59;-0.40;1.00
20839;DHT22;10580;51.092;6.828;2024-01-16T16:41:26;-0.40;1.00
20839;DHT22;10580;51.092;6.828;2024-01-16T16:43:52;-0.50;1.00
20839;DHT22;10580;51.092;6.828;2024-01-16T16:46:19;-0.50;1.00
20839;DHT22;10580;51.092;6.828;2024-01-16T16:48:48;-0.50;1.00
20839;DHT22;10580;51.092;6.828;2024-01-16T16:51:17;-0.50;1.00
20839;DHT22;10580;51.092;6.828;2024-01-16T16:53:42;-0.60;1.00
20839;DHT22;10580;51.092;6.828;2024-01-16T16:56:14;-0.60;1.00
20839;DHT22;10580;51.092;6.828;2024-01-16T16:58:41;-0.60;1.00
20839;DHT22;10580;51.092;6.828;2024-01-16T17:01:11;-0.70;1.00